Data for 08/26/2007

Time Sea-Level Adjusted Pressure Absolute Pressure Temperature Relative Humidity Dew Point   
(mb) (inHg) (mb) (inHg) (C) (F) (%) (C) (F)
00:05 1013 29.91 842 24.86 20 67.9 26 0.1 32.2
00:10 1013 29.91 842 24.86 18.9 65.9 29 0.4 32.7
00:15 1013 29.91 842 24.86 18.2 64.7 30 0.6 33.1
00:20 1013 29.91 842 24.86 17.4 63.4 32 0.8 33.4
00:25 1013 29.91 842 24.86 17.1 62.7 33 0.7 33.3
00:30 1013 29.91 842 24.86 17.2 62.9 31 0.2 32.3
00:35 1013 29.91 842 24.86 17.4 63.3 31 0.2 32.3
00:40 1013 29.91 843 24.89 17.5 63.5 31 0.3 32.6
00:45 1013 29.91 843 24.89 17.7 63.8 30 0.2 32.4
00:50 1013 29.91 843 24.89 17.8 64 30 0 32.1
00:55 1014 29.94 843 24.89 17.7 63.9 30 -0.1 31.9
01:00 1014 29.94 843 24.89 17.7 63.9 30 0 32
01:05 1014 29.94 843 24.89 17.7 63.9 30 0.2 32.4
01:10 1014 29.94 843 24.89 17.4 63.3 31 0.1 32.2
01:15 1014 29.94 843 24.89 17.3 63.1 34 1.3 34.3
01:20 1014 29.94 843 24.89 17.4 63.4 30 -0.3 31.5
01:25 1014 29.94 843 24.89 17.5 63.6 30 -0.2 31.6
01:30 1014 29.94 843 24.89 17.4 63.4 30 -0.4 31.3
01:35 1014 29.94 843 24.89 17.3 63.1 30 -0.2 31.7
01:40 1014 29.94 843 24.89 17 62.7 33 0.6 33.2
01:45 1014 29.94 843 24.89 16.8 62.2 31 -0.2 31.7
01:50 1014 29.94 843 24.89 17.1 62.8 32 0.2 32.4
01:55 1014 29.94 843 24.89 17.5 63.6 29 -0.5 31.2
02:00 1014 29.94 843 24.89 17.4 63.3 40 3.9 39
02:05 1014 29.94 843 24.89 17.4 63.2 29 -0.8 30.6
02:10 1014 29.94 843 24.89 17.6 63.6 31 0.2 32.3
02:15 1014 29.94 843 24.89 17.2 63 31 0.1 32.2
02:20 1014 29.94 843 24.89 17 62.6 32 0.2 32.3
02:25 1014 29.94 843 24.89 16.4 61.6 35 1 33.8
02:30 1014 29.94 843 24.89 15.6 60.1 39 2 35.5
02:35 1014 29.94 843 24.89 16 60.9 32 -0.4 31.4
02:40 1014 29.94 843 24.89 15.8 60.5 36 0.8 33.4
02:45 1014 29.94 843 24.89 15.4 59.8 35 0.1 32.2
02:50 1014 29.94 843 24.89 15.4 59.6 35 0.1 32.1
02:55 1014 29.94 843 24.89 15.3 59.5 35 0.1 32.3
03:00 1014 29.94 843 24.89 15.1 59.1 35 0 32
03:05 1014 29.94 844 24.92 14.8 58.7 36 0.1 32.2
03:10 1014 29.94 844 24.92 14.9 58.7 35 -0.3 31.5
03:15 1014 29.94 843 24.89 15 58.9 35 -0.4 31.3
03:20 1014 29.94 843 24.89 15 59 35 -0.1 31.7
03:25 1014 29.94 844 24.92 14.9 58.9 34 -0.5 31
03:30 1014 29.94 843 24.89 15.1 59.3 34 -0.5 31.1
03:35 1014 29.94 843 24.89 15.5 59.8 37 0.8 33.5
03:40 1014 29.94 844 24.92 15.1 59.2 35 -0.1 31.9
03:45 1014 29.94 844 24.92 15.1 59.2 34 -0.5 31
03:50 1014 29.94 844 24.92 15.3 59.5 34 -0.4 31.4
03:55 1014 29.94 844 24.92 15.5 59.8 33 -0.6 30.9
04:00 1014 29.94 844 24.92 15.8 60.5 32 -0.8 30.5
04:05 1014 29.94 843 24.89 16 60.7 32 -0.8 30.6
04:10 1014 29.94 843 24.89 15.7 60.2 34 -0 31.9
04:15 1014 29.94 843 24.89 15 58.9 37 0.6 33
04:20 1014 29.94 843 24.89 14.6 58.3 35 -0.7 30.8
04:25 1014 29.94 843 24.89 14.9 58.9 34 -0.5 31
04:30 1014 29.94 843 24.89 14.6 58.4 36 -0 32
04:35 1014 29.94 843 24.89 14.2 57.5 38 0 32.1
04:40 1014 29.94 843 24.89 14.2 57.6 37 -0 32
04:45 1014 29.94 843 24.89 14.5 58 35 -0.6 31
04:50 1014 29.94 844 24.92 14.6 58.4 36 -0.4 31.4
04:55 1014 29.94 843 24.89 15.1 59.2 34 -0.4 31.2
05:00 1014 29.94 843 24.89 15.1 59.2 34 -0.5 31.1
05:05 1014 29.94 843 24.89 15 59 34 -0.6 31
05:10 1014 29.94 843 24.89 14.8 58.7 35 -0.4 31.3
05:15 1014 29.94 843 24.89 14.5 58.1 37 0.2 32.4
05:20 1014 29.94 843 24.89 13.9 57 40 0.4 32.8
05:25 1014 29.94 843 24.89 13.4 56.1 40 0.3 32.5
05:30 1014 29.94 843 24.89 13.3 55.9 40 0.2 32.3
05:35 1014 29.94 843 24.89 13.5 56.2 38 -0.4 31.4
05:40 1014 29.94 843 24.89 13.8 56.9 38 -0.3 31.5
05:45 1014 29.94 843 24.89 14 57.1 37 -0.3 31.4
05:50 1014 29.94 843 24.89 14.2 57.6 37 -0.2 31.7
05:55 1014 29.94 843 24.89 14.3 57.7 37 -0.3 31.5
06:00 1014 29.94 843 24.89 14.1 57.4 38 0.2 32.3
06:05 1014 29.94 843 24.89 14 57.2 37 -0.5 31.1
06:10 1014 29.94 843 24.89 14.3 57.7 36 -0.3 31.5
06:15 1014 29.94 843 24.89 14.5 58 35 -0.7 30.8
06:20 1014 29.94 843 24.89 14.7 58.4 35 -0.6 30.9
06:25 1014 29.94 843 24.89 14.6 58.2 36 -0.3 31.4
06:30 1014 29.94 843 24.89 14.1 57.4 38 0 32
06:35 1014 29.94 843 24.89 13.9 57 38 -0 32
06:40 1014 29.94 843 24.89 14 57.1 37 -0.4 31.3
06:45 1014 29.94 843 24.89 14.1 57.4 38 0.1 32.2
06:50 1014 29.94 843 24.89 13.8 56.8 39 0.1 32.2
06:55 1014 29.94 843 24.89 13.8 56.8 38 -0.2 31.7
07:00 1014 29.94 843 24.89 13.7 56.6 39 0.1 32.1
07:05 1014 29.94 843 24.89 13.7 56.6 40 0.3 32.5
07:10 1014 29.94 843 24.89 13.6 56.5 41 0.7 33.3
07:15 1014 29.94 843 24.89 13.7 56.6 40 0.3 32.6
07:20 1014 29.94 843 24.89 13.5 56.2 41 0.4 32.8
07:25 1014 29.94 843 24.89 13.3 55.9 44 1.3 34.3
07:30 1014 29.94 843 24.89 12.9 55.2 45 1.4 34.6
07:35 1014 29.94 844 24.92 12.5 54.5 47 1.4 34.6
07:40 1014 29.94 844 24.92 12.3 54.2 49 1.8 35.3
07:45 1014 29.94 843 24.89 12.2 54 48 1.5 34.7
07:50 1014 29.94 844 24.92 12.7 54.9 46 1.6 34.9
07:55 1014 29.94 843 24.89 13.4 56.1 41 0.4 32.7
08:00 1014 29.94 843 24.89 14 57.1 43 1.8 35.2
08:05 1014 29.94 843 24.89 14.2 57.5 40 0.8 33.4
08:10 1014 29.94 843 24.89 14.3 57.8 41 1.3 34.4
08:15 1014 29.94 843 24.89 14.4 58 43 2.1 35.8
08:20 1014 29.94 843 24.89 14.4 57.9 47 3.3 38
08:25 1014 29.94 843 24.89 14.5 58.2 45 2.9 37.2
08:30 1014 29.94 843 24.89 14.9 58.9 46 3.4 38.1
08:35 1014 29.94 843 24.89 15.6 60 45 3.8 38.8
08:40 1014 29.94 843 24.89 15.9 60.6 42 3 37.4
08:45 1014 29.94 843 24.89 16.1 60.9 43 3.6 38.4
08:50 1014 29.94 843 24.89 16.1 60.9 42 3.3 37.9
08:55 1014 29.94 843 24.89 16.8 62.3 39 2.8 37
09:00 1014 29.94 843 24.89 17.5 63.6 36 2.4 36.3
09:05 1014 29.94 843 24.89 18.5 65.3 31 1.4 34.5
09:10 1014 29.94 843 24.89 19.2 66.5 30 1.4 34.6
09:15 1014 29.94 843 24.89 19.6 67.2 31 2.1 35.8
09:20 1014 29.94 843 24.89 19.7 67.4 30 2 35.6
09:25 1014 29.94 843 24.89 19.5 67 32 2.4 36.4
09:30 1014 29.94 843 24.89 19.1 66.4 33 2.4 36.4
09:35 1014 29.94 843 24.89 19.9 67.8 30 2 35.7
09:40 1014 29.94 843 24.89 20 68 30 2.1 35.7
09:45 1014 29.94 843 24.89 20.6 69.1 27 1.3 34.3
09:50 1014 29.94 843 24.89 21.4 70.5 26 1.2 34.1
09:55 1014 29.94 843 24.89 21.8 71.3 26 1.6 34.9
10:00 1014 29.94 843 24.89 21.7 71 26 1.6 34.8
10:05 1014 29.94 843 24.89 22.1 71.8 26 2.1 35.7
10:10 1014 29.94 843 24.89 22.7 72.8 25 1.8 35.2
10:15 1014 29.94 843 24.89 22.7 72.8 26 2.2 35.9
10:20 1014 29.94 843 24.89 22.6 72.7 26 2.2 35.9
10:25 1014 29.94 843 24.89 22.8 73.1 26 2.4 36.4
10:30 1014 29.94 843 24.89 23.1 73.6 25 2.2 36
10:35 1014 29.94 843 24.89 23.4 74 25 2.5 36.5
10:40 1014 29.94 843 24.89 23.2 73.7 25 2.5 36.5
10:45 1014 29.94 843 24.89 22.8 73.1 26 2.5 36.5
10:50 1014 29.94 843 24.89 23 73.5 25 2.3 36.2
10:55 1014 29.94 843 24.89 23.6 74.5 25 2.4 36.4
11:00 1014 29.94 843 24.89 24 75.2 24 2.3 36.2
11:05 1014 29.94 843 24.89 24.4 75.9 22 1.7 35
11:10 1014 29.94 843 24.89 24.6 76.2 23 2.1 35.8
11:15 1014 29.94 843 24.89 24.3 75.7 23 2 35.6
11:20 1014 29.94 843 24.89 24.5 76.2 22 1.7 35
11:25 1014 29.94 843 24.89 24.6 76.4 23 2.2 35.9
11:30 1014 29.94 843 24.89 24.9 76.7 22 2.1 35.8
11:35 1014 29.94 843 24.89 24.7 76.4 23 2.4 36.3
11:40 1014 29.94 843 24.89 24.7 76.4 23 2.2 36
11:45 1013 29.91 843 24.89 25 77 21 1.2 34.2
11:50 1013 29.91 843 24.89 24.6 76.3 22 1.8 35.2
11:55 1013 29.91 843 24.89 25.1 77.2 22 2.5 36.4
12:00 1013 29.91 842 24.86 25.8 78.4 20 1.7 35.1
12:05 1013 29.91 842 24.86 26.4 79.5 21 2.5 36.5
12:10 1013 29.91 842 24.86 26.1 79 20 1.6 34.9
12:15 1013 29.91 842 24.86 25.9 78.7 21 2 35.5
12:20 1013 29.91 842 24.86 26.1 78.9 20 1.5 34.7
12:25 1013 29.91 842 24.86 25.6 78.1 21 2.2 36
12:30 1013 29.91 842 24.86 25.9 78.5 20 1.3 34.4
12:35 1013 29.91 842 24.86 27 80.6 19 1.4 34.6
12:40 1013 29.91 842 24.86 27.3 81.1 19 2.3 36.2
12:45 1013 29.91 842 24.86 27.1 80.7 19 1.7 35.1
12:50 1013 29.91 842 24.86 27.2 80.9 19 2 35.5
12:55 1013 29.91 842 24.86 27.5 81.4 19 1.8 35.3
13:00 1012 29.88 842 24.86 27.4 81.3 19 1.7 35.1
13:05 1012 29.88 842 24.86 27.8 82 18 1.5 34.7
13:10 1012 29.88 841 24.83 28 82.3 18 1.6 35
13:15 1012 29.88 841 24.83 28.3 83 18 2 35.5
13:20 1012 29.88 841 24.83 28.7 83.6 19 2.9 37.1
13:25 1012 29.88 841 24.83 28.5 83.3 16 0.7 33.3
13:30 1012 29.88 841 24.83 28.3 82.9 17 1.6 34.8
13:35 1012 29.88 841 24.83 28.8 83.9 15 0.4 32.7
13:40 1012 29.88 841 24.83 29.5 85.2 14 0 32
13:45 1012 29.88 841 24.83 29.8 85.6 15 0.9 33.6
13:50 1012 29.88 841 24.83 29.9 85.9 14 0.3 32.6
13:55 1012 29.88 841 24.83 30.1 86.1 15 1.1 34
14:00 1012 29.88 841 24.83 30.4 86.7 14 0.1 32.2
14:05 1012 29.88 841 24.83 29.9 85.8 15 0.6 33
14:10 1012 29.88 841 24.83 29.8 85.6 14 -0 32
14:15 1012 29.88 841 24.83 29.5 85 15 0.4 32.8
14:20 1012 29.88 841 24.83 29 84.2 15 0.3 32.6
14:25 1012 29.88 841 24.83 29.5 85.1 15 0.8 33.4
14:30 1012 29.88 841 24.83 29.5 85.1 15 0.3 32.5
14:35 1011 29.85 841 24.83 29.2 84.5 16 1.2 34.1
14:40 1011 29.85 841 24.83 28.7 83.6 16 0.6 33.1
14:45 1011 29.85 841 24.83 28.2 82.7 16 0.5 32.8
14:50 1011 29.85 841 24.83 27.9 82.3 18 1.4 34.6
14:55 1011 29.85 841 24.83 28.2 82.8 16 0.1 32.2
15:00 1011 29.85 841 24.83 27.8 82 17 0.9 33.5
15:05 1011 29.85 840 24.81 28.6 83.5 16 0.6 33.1
15:10 1011 29.85 840 24.81 29.3 84.8 15 0.8 33.4
15:15 1011 29.85 840 24.81 29.5 85.2 15 0.1 32.2
15:20 1011 29.85 840 24.81 29.8 85.7 15 0.6 33
15:25 1011 29.85 840 24.81 29.9 85.7 15 0.8 33.5
15:30 1011 29.85 840 24.81 29.7 85.5 15 1.1 34
15:35 1011 29.85 840 24.81 29.7 85.5 15 1 33.7
15:40 1011 29.85 840 24.81 29.9 85.8 16 1.3 34.4
15:45 1011 29.85 840 24.81 30.4 86.6 14 0.6 33.2
15:50 1011 29.85 840 24.81 30.4 86.8 15 0.8 33.5
15:55 1011 29.85 840 24.81 30.4 86.7 13 -0.7 30.7
16:00 1011 29.85 840 24.81 30.8 87.5 12 -1.1 30.1
16:05 1011 29.85 840 24.81 30.9 87.6 12 -1.6 29.1
16:10 1010 29.83 840 24.81 31 87.7 12 -1.6 29.2
16:15 1010 29.83 840 24.81 30.9 87.5 12 -1.7 28.9
16:20 1010 29.83 840 24.81 30.8 87.5 12 -1.6 29.2
16:25 1010 29.83 840 24.81 30.6 87 12 -1.7 28.9
16:30 1010 29.83 840 24.81 30.7 87.2 12 -1.9 28.6
16:35 1010 29.83 840 24.81 30.8 87.5 11 -2.4 27.6
16:40 1010 29.83 840 24.81 30.7 87.2 12 -1.8 28.7
16:45 1010 29.83 840 24.81 30.6 87.1 12 -2 28.3
16:50 1010 29.83 840 24.81 30.4 86.7 12 -2.2 28
16:55 1010 29.83 840 24.81 30.6 87 12 -1.7 28.9
17:00 1010 29.83 840 24.81 30.7 87.3 11 -2.2 28
17:05 1010 29.83 840 24.81 30.7 87.2 12 -1.9 28.5
17:10 1010 29.83 839 24.78 30.9 87.6 11 -2.3 27.9
17:15 1010 29.83 839 24.78 30.9 87.6 11 -2.6 27.3
17:20 1010 29.83 839 24.78 30.9 87.7 11 -2 28.4
17:25 1010 29.83 839 24.78 31 87.8 11 -2.4 27.7
17:30 1010 29.83 839 24.78 30.7 87.2 11 -2.5 27.5
17:35 1010 29.83 839 24.78 30.7 87.3 11 -2.3 27.8
17:40 1010 29.83 839 24.78 30.9 87.5 11 -2.9 26.8
17:45 1010 29.83 839 24.78 30.7 87.2 12 -2 28.4
17:50 1010 29.83 839 24.78 30.6 87.1 12 -1.7 29
17:55 1010 29.83 839 24.78 30.7 87.3 12 -2 28.5
18:00 1010 29.83 839 24.78 30.8 87.5 11 -2.4 27.7
18:05 1010 29.83 839 24.78 30.8 87.4 11 -2.6 27.4
18:10 1010 29.83 839 24.78 30.5 86.9 13 -0.9 30.5
18:15 1010 29.83 839 24.78 30.2 86.4 12 -1.6 29
18:20 1010 29.83 839 24.78 30.4 86.7 14 0.6 33.2
18:25 1010 29.83 839 24.78 29.9 85.7 14 -0.4 31.2
18:30 1010 29.83 839 24.78 29.5 85 14 -0.4 31.2
18:35 1010 29.83 839 24.78 28.9 83.9 14 -0.7 30.7
18:40 1010 29.83 839 24.78 28.6 83.4 15 -0.6 30.9
18:45 1010 29.83 839 24.78 28.3 82.9 15 -0.4 31.2
18:50 1010 29.83 839 24.78 27.9 82.2 15 -0.6 31
18:55 1010 29.83 840 24.81 27.5 81.5 16 -0.6 31
19:00 1010 29.83 840 24.81 27.3 81.1 16 -0.8 30.5
19:05 1011 29.85 840 24.81 27 80.6 16 -0.8 30.5
19:10 1011 29.85 840 24.81 26.7 80 18 0.5 32.9
19:15 1011 29.85 840 24.81 26.3 79.4 18 0.4 32.7
19:20 1011 29.85 840 24.81 25.9 78.7 18 0.2 32.3
19:25 1011 29.85 840 24.81 25.6 78 18 0 32
19:30 1011 29.85 840 24.81 25.3 77.5 19 0.4 32.8
19:35 1011 29.85 840 24.81 25.1 77.1 19 -0 31.9
19:40 1011 29.85 840 24.81 24.8 76.7 19 -0.1 31.9
19:45 1011 29.85 841 24.83 24.6 76.2 19 -0.3 31.5
19:50 1012 29.88 841 24.83 24.3 75.7 19 -0.5 31.1
19:55 1012 29.88 841 24.83 24 75.3 20 -0.4 31.3
20:00 1012 29.88 841 24.83 23.8 74.8 20 -0.5 31.1
20:05 1012 29.88 841 24.83 23.5 74.4 20 -0.6 30.9
20:10 1012 29.88 841 24.83 23.3 73.9 21 -0.2 31.6
20:15 1012 29.88 841 24.83 23 73.3 20 -0.7 30.8
20:20 1012 29.88 842 24.86 22.8 73 21 -0.8 30.6
20:25 1013 29.91 842 24.86 22.6 72.6 21 -0.5 31.1
20:30 1013 29.91 842 24.86 22.2 71.9 23 0.2 32.3
20:35 1013 29.91 842 24.86 21.6 70.9 23 -0 31.9
20:40 1013 29.91 842 24.86 21.6 70.9 23 -0.4 31.2
20:45 1013 29.91 842 24.86 21.7 71.1 23 -0.4 31.2
20:50 1013 29.91 842 24.86 21.6 70.8 22 -0.7 30.8
20:55 1014 29.94 843 24.89 21.4 70.5 23 -0.4 31.2
21:00 1014 29.94 843 24.89 21.2 70.1 23 -0.7 30.8
21:05 1014 29.94 843 24.89 21.3 70.4 23 -0.7 30.7
21:10 1014 29.94 843 24.89 21.4 70.4 23 -0.5 31.2
21:15 1014 29.94 843 24.89 21.1 70 23 -0.6 30.9
21:20 1014 29.94 843 24.89 20.9 69.6 24 -0.2 31.6
21:25 1014 29.94 843 24.89 20.4 68.8 24 -0.4 31.2
21:30 1014 29.94 843 24.89 20.3 68.6 24 -0.5 31.1
21:35 1014 29.94 843 24.89 20.4 68.6 25 -0.3 31.5
21:40 1014 29.94 843 24.89 19.9 67.8 26 -0 31.9
21:45 1014 29.94 843 24.89 19.7 67.4 26 -0.4 31.4
21:50 1014 29.94 844 24.92 20 68 26 -0.2 31.7
21:55 1014 29.94 844 24.92 19.6 67.4 31 2 35.6
22:00 1014 29.94 844 24.92 19.5 67.2 27 -0 32
22:05 1014 29.94 844 24.92 19.4 66.9 27 -0.1 31.8
22:10 1015 29.97 844 24.92 19.3 66.7 28 0.5 32.9
22:15 1015 29.97 844 24.92 18.7 65.7 29 0.4 32.8
22:20 1015 29.97 844 24.92 18.7 65.6 29 0.5 33
22:25 1015 29.97 844 24.92 18.8 65.8 29 0.4 32.7
22:30 1015 29.97 844 24.92 18.4 65 31 1 33.7
22:35 1015 29.97 844 24.92 17.8 64 32 1.2 34.1
22:40 1015 29.97 844 24.92 17.8 64.1 32 1 33.8
22:45 1015 29.97 844 24.92 17.7 63.9 31 0.7 33.3
22:50 1015 29.97 844 24.92 17.4 63.4 32 0.9 33.6
22:55 1015 29.97 844 24.92 17.1 62.8 33 0.7 33.2
23:00 1015 29.97 844 24.92 17 62.6 33 0.6 33
23:05 1015 29.97 844 24.92 17.1 62.7 32 0.5 32.9
23:10 1015 29.97 844 24.92 16.7 62.1 35 1.1 34
23:15 1015 29.97 844 24.92 16.5 61.7 39 2.7 36.9
23:20 1015 29.97 844 24.92 16.7 62.1 32 0 32.1
23:25 1015 29.97 844 24.92 17.7 63.8 30 -0.2 31.6
23:30 1015 29.97 844 24.92 18 64.5 29 -0.2 31.7
23:35 1015 29.97 845 24.95 18.1 64.5 29 -0 31.9
23:40 1015 29.97 845 24.95 18 64.4 29 -0.1 31.8
23:45 1015 29.97 845 24.95 17.9 64.2 30 0.4 32.7
23:50 1015 29.97 845 24.95 17.9 64.2 29 -0.2 31.7
23:55 1016 30 845 24.95 17.7 63.8 30 -0 31.9
24:00 1016 30 845 24.95 17.5 63.4 32 0.5 32.9